createdAt,value
2022-09-14T00:01:51.234Z,100853.06
2022-09-14T00:04:19.619Z,100844.53
2022-09-14T00:06:47.434Z,100839.28
2022-09-14T00:09:17.442Z,100841.53
2022-09-14T00:11:43.954Z,100835.84
2022-09-14T00:14:10.467Z,100836.75
2022-09-14T00:16:39.597Z,100835.53
2022-09-14T00:19:26.764Z,100839.56
2022-09-14T00:21:55.903Z,100841.84
2022-09-14T00:24:23.828Z,100832.50
2022-09-14T00:26:50.956Z,100830.22
2022-09-14T00:29:18.731Z,100830.22
2022-09-14T00:31:45.573Z,100814.53
2022-09-14T00:34:14.748Z,100818.66
2022-09-14T00:36:44.902Z,100823.69
2022-09-14T00:39:12.451Z,100820.69
2022-09-14T00:41:42.158Z,100814.94
2022-09-14T00:44:28.459Z,100813.13
2022-09-14T00:46:58.485Z,100805.56
2022-09-14T00:49:39.625Z,100798.16
2022-09-14T00:52:14.700Z,100796.22
2022-09-14T00:54:43.675Z,100788.47
2022-09-14T00:57:10.507Z,100793.72
2022-09-14T00:59:39.260Z,100786.09
2022-09-14T01:02:09.115Z,100787.78
2022-09-14T01:04:36.591Z,100774.78
2022-09-14T01:07:18.380Z,100779.06
2022-09-14T01:10:03.723Z,100771.41
2022-09-14T01:12:58.025Z,100769.47
2022-09-14T01:15:39.216Z,100762.72
2022-09-14T01:18:37.095Z,100761.22
2022-09-14T01:21:10.911Z,100759.66
2022-09-14T01:23:59.382Z,100759.06
2022-09-14T01:26:40.869Z,100761.75
2022-09-14T01:29:19.832Z,100750.97
2022-09-14T01:32:00.445Z,100745.75
2022-09-14T01:34:52.071Z,100746.25
2022-09-14T01:37:30.914Z,100755.28
2022-09-14T01:40:12.923Z,100754.09
2022-09-14T01:42:42.676Z,100759.63
2022-09-14T01:45:13.403Z,100767.47
2022-09-14T01:47:49.010Z,100767.47
2022-09-14T01:50:36.809Z,100760.66
2022-09-14T01:53:09.832Z,100750.09
2022-09-14T01:55:52.273Z,100758.09
2022-09-14T01:58:26.698Z,100743.56
2022-09-14T02:00:56.577Z,100745.00
2022-09-14T02:03:29.643Z,100747.34
2022-09-14T02:06:04.927Z,100736.97
2022-09-14T02:08:31.843Z,100735.88
2022-09-14T02:10:58.932Z,100727.06
2022-09-14T02:13:26.772Z,100736.03
2022-09-14T02:15:53.418Z,100745.97
2022-09-14T02:18:20.548Z,100753.44
2022-09-14T02:20:53.611Z,100751.31
2022-09-14T02:23:20.310Z,100748.78
2022-09-14T02:25:47.391Z,100742.75
2022-09-14T02:28:14.211Z,100747.69
2022-09-14T02:31:10.076Z,100752.66
2022-09-14T02:33:54.894Z,100749.16
2022-09-14T02:36:43.276Z,100755.75
2022-09-14T02:39:24.863Z,100750.50
2022-09-14T02:42:26.156Z,100758.16
2022-09-14T02:45:07.550Z,100743.03
2022-09-14T02:47:55.788Z,100746.63
2022-09-14T02:50:43.146Z,100746.09
2022-09-14T02:53:38.408Z,100741.03
2022-09-14T02:56:08.555Z,100739.19
2022-09-14T02:58:37.687Z,100738.97
2022-09-14T03:01:05.993Z,100734.38
2022-09-14T03:03:35.590Z,100736.22
2022-09-14T03:06:02.236Z,100728.31
2022-09-14T03:08:28.816Z,100727.47
2022-09-14T03:10:55.440Z,100731.06
2022-09-14T03:13:22.271Z,100724.72
2022-09-14T03:15:48.779Z,100723.56
2022-09-14T03:18:15.649Z,100726.22
2022-09-14T03:20:42.643Z,100732.00
2022-09-14T03:23:10.692Z,100716.34
2022-09-14T03:25:39.820Z,100717.41
2022-09-14T03:28:07.054Z,100714.22
2022-09-14T03:30:33.996Z,100699.53
2022-09-14T03:33:01.011Z,100704.22
2022-09-14T03:35:31.895Z,100705.72
2022-09-14T03:37:59.671Z,100702.91
2022-09-14T03:40:27.338Z,100700.69
2022-09-14T03:42:54.367Z,100705.72
2022-09-14T03:45:21.675Z,100684.81
2022-09-14T03:47:48.678Z,100687.47
2022-09-14T03:50:16.367Z,100684.75
2022-09-14T03:52:42.860Z,100682.66
2022-09-14T03:55:09.451Z,100686.00
2022-09-14T03:57:36.247Z,100680.78
2022-09-14T04:00:04.387Z,100676.06
2022-09-14T04:02:37.971Z,100665.91
2022-09-14T04:05:04.877Z,100675.84
2022-09-14T04:07:31.449Z,100676.94
2022-09-14T04:09:58.309Z,100665.63
2022-09-14T04:12:24.784Z,100656.22
2022-09-14T04:14:51.279Z,100659.53
2022-09-14T04:17:17.804Z,100663.38
2022-09-14T04:19:44.565Z,100667.53
2022-09-14T04:22:11.242Z,100660.34
2022-09-14T04:24:37.766Z,100654.25
2022-09-14T04:27:04.288Z,100659.25
2022-09-14T04:29:30.800Z,100650.84
2022-09-14T04:31:57.908Z,100652.19
2022-09-14T04:34:24.481Z,100647.50
2022-09-14T04:36:50.989Z,100652.72
2022-09-14T04:39:17.555Z,100654.91
2022-09-14T04:41:44.030Z,100650.84
2022-09-14T04:44:10.744Z,100654.97
2022-09-14T04:46:45.060Z,100650.03
2022-09-14T04:49:13.098Z,100646.75
2022-09-14T04:51:39.607Z,100639.50
2022-09-14T04:54:07.023Z,100633.19
2022-09-14T04:56:35.924Z,100630.72
2022-09-14T04:59:04.321Z,100617.41
2022-09-14T05:01:43.123Z,100618.25
2022-09-14T05:04:11.662Z,100617.75
2022-09-14T05:06:40.519Z,100619.41
2022-09-14T05:09:13.602Z,100626.91
2022-09-14T05:11:41.130Z,100625.44
2022-09-14T05:14:09.490Z,100627.44
2022-09-14T05:16:37.690Z,100624.22
2022-09-14T05:19:06.993Z,100628.28
2022-09-14T05:21:36.255Z,100629.38
2022-09-14T05:24:06.161Z,100626.91
2022-09-14T05:26:32.922Z,100625.22
2022-09-14T05:29:01.226Z,100639.59
2022-09-14T05:31:29.305Z,100639.06
2022-09-14T05:33:55.913Z,100635.78
2022-09-14T05:36:23.028Z,100645.22
2022-09-14T05:38:49.695Z,100639.72
2022-09-14T05:41:16.317Z,100647.19
2022-09-14T05:43:43.537Z,100650.97
2022-09-14T05:46:12.412Z,100653.50
2022-09-14T05:48:39.693Z,100647.97
2022-09-14T05:51:18.257Z,100655.13
2022-09-14T05:53:50.159Z,100651.00
2022-09-14T05:56:17.868Z,100657.88
2022-09-14T05:58:44.726Z,100652.41
2022-09-14T06:01:16.989Z,100656.28
2022-09-14T06:03:44.818Z,100648.53
2022-09-14T06:06:13.492Z,100647.72
2022-09-14T06:08:40.624Z,100650.25
2022-09-14T06:11:09.471Z,100655.75
2022-09-14T06:13:36.252Z,100645.03
2022-09-14T06:16:07.498Z,100658.53
2022-09-14T06:18:35.603Z,100668.41
2022-09-14T06:21:03.546Z,100668.47
2022-09-14T06:23:30.816Z,100667.66
2022-09-14T06:25:58.993Z,100672.13
2022-09-14T06:28:26.276Z,100661.34
2022-09-14T06:30:53.019Z,100664.09
2022-09-14T06:33:20.141Z,100656.13
2022-09-14T06:35:56.241Z,100653.06
2022-09-14T06:38:23.021Z,100646.72
2022-09-14T06:40:56.978Z,100649.81
2022-09-14T06:43:28.923Z,100647.84
2022-09-14T06:46:00.303Z,100647.56
2022-09-14T06:48:29.107Z,100638.41
2022-09-14T06:50:56.380Z,100637.06
2022-09-14T06:53:23.158Z,100631.22
2022-09-14T06:55:49.999Z,100624.63
2022-09-14T06:58:16.515Z,100623.25
2022-09-14T07:00:43.111Z,100633.75
2022-09-14T07:03:09.604Z,100635.91
2022-09-14T07:05:36.099Z,100634.28
2022-09-14T07:08:02.571Z,100628.84
2022-09-14T07:10:29.059Z,100622.78
2022-09-14T07:12:55.695Z,100624.41
2022-09-14T07:15:22.334Z,100621.94
2022-09-14T07:17:48.787Z,100624.69
2022-09-14T07:20:18.092Z,100622.47
2022-09-14T07:22:45.191Z,100625.56
2022-09-14T07:25:11.828Z,100620.88
2022-09-14T07:27:39.424Z,100624.16
2022-09-14T07:30:07.302Z,100622.25
2022-09-14T07:32:33.798Z,100617.31
2022-09-14T07:35:00.826Z,100626.13
2022-09-14T07:37:28.772Z,100615.91
2022-09-14T07:39:57.102Z,100622.81
2022-09-14T07:42:23.680Z,100620.63
2022-09-14T07:44:50.556Z,100620.09
2022-09-14T07:47:17.020Z,100617.88
2022-09-14T07:49:43.472Z,100614.03
2022-09-14T07:52:11.196Z,100616.22
2022-09-14T07:54:37.865Z,100620.09
2022-09-14T07:57:04.314Z,100621.16
2022-09-14T07:59:38.492Z,100619.00
2022-09-14T08:02:07.615Z,100604.91
2022-09-14T08:04:40.455Z,100611.22
2022-09-14T08:07:07.786Z,100613.47
2022-09-14T08:09:34.364Z,100618.47
2022-09-14T08:12:00.855Z,100616.53
2022-09-14T08:14:27.343Z,100614.03
2022-09-14T08:16:53.860Z,100618.66
2022-09-14T08:19:20.774Z,100610.44
2022-09-14T08:21:48.133Z,100615.13
2022-09-14T08:24:17.389Z,100615.66
2022-09-14T08:26:44.029Z,100608.53
2022-09-14T08:29:12.342Z,100610.72
2022-09-14T08:31:39.140Z,100610.28
2022-09-14T08:34:06.891Z,100617.16
2022-09-14T08:36:36.671Z,100618.25
2022-09-14T08:39:04.299Z,100620.41
2022-09-14T08:41:45.723Z,100624.81
2022-09-14T08:44:35.621Z,100627.25
2022-09-14T08:47:16.299Z,100621.47
2022-09-14T08:49:47.303Z,100615.94
2022-09-14T08:52:28.302Z,100621.72
2022-09-14T08:54:59.447Z,100614.28
2022-09-14T08:57:38.203Z,100615.94
2022-09-14T09:00:09.259Z,100614.31
2022-09-14T09:03:03.067Z,100623.66
2022-09-14T09:05:39.642Z,100630.00
2022-09-14T09:08:13.063Z,100622.81
2022-09-14T09:10:40.818Z,100622.94
2022-09-14T09:13:19.547Z,100633.63
2022-09-14T09:16:00.244Z,100623.16
2022-09-14T09:18:55.247Z,100624.22
2022-09-14T09:21:38.653Z,100629.75
2022-09-14T09:24:18.045Z,100629.16
2022-09-14T09:26:44.508Z,100620.91
2022-09-14T09:29:11.820Z,100620.97
2022-09-14T09:31:58.901Z,100618.72
2022-09-14T09:34:43.713Z,100622.31
2022-09-14T09:37:22.395Z,100625.09
2022-09-14T09:39:49.522Z,100618.75
2022-09-14T09:42:22.596Z,100620.66
2022-09-14T09:45:03.635Z,100626.78
2022-09-14T09:47:33.444Z,100616.22
2022-09-14T09:50:03.616Z,100612.69
2022-09-14T09:52:32.998Z,100613.50
2022-09-14T09:55:00.259Z,100611.81
2022-09-14T09:57:35.286Z,100611.28
2022-09-14T10:00:30.978Z,100608.50
2022-09-14T10:02:57.993Z,100605.81
2022-09-14T10:05:31.482Z,100593.66
2022-09-14T10:08:00.288Z,100598.59
2022-09-14T10:10:44.842Z,100604.69
2022-09-14T10:13:27.379Z,100597.47
2022-09-14T10:15:54.440Z,100603.53
2022-09-14T10:18:22.881Z,100601.59
2022-09-14T10:20:52.278Z,100605.50
2022-09-14T10:23:18.653Z,100601.84
2022-09-14T10:25:50.387Z,100603.47
2022-09-14T10:28:26.216Z,100604.19
2022-09-14T10:31:02.447Z,100606.81
2022-09-14T10:33:30.123Z,100606.75
2022-09-14T10:35:56.499Z,100598.50
2022-09-14T10:38:39.843Z,100611.69
2022-09-14T10:41:06.465Z,100609.50
2022-09-14T10:44:14.131Z,100613.84
2022-09-14T10:46:52.982Z,100607.25
2022-09-14T10:49:37.983Z,100598.69
2022-09-14T10:52:24.199Z,100600.16
2022-09-14T10:55:09.349Z,100599.03
2022-09-14T10:57:52.849Z,100603.16
2022-09-14T11:00:20.460Z,100599.59
2022-09-14T11:03:14.839Z,100605.50
2022-09-14T11:06:00.027Z,100605.09
2022-09-14T11:08:33.079Z,100601.34
2022-09-14T11:11:34.932Z,100595.78
2022-09-14T11:14:04.642Z,100605.44
2022-09-14T11:16:56.320Z,100594.66
2022-09-14T11:20:00.057Z,100602.09
2022-09-14T11:23:06.265Z,100604.59
2022-09-14T11:26:03.476Z,100596.06
2022-09-14T11:29:08.140Z,100594.06
2022-09-14T11:31:52.111Z,100598.25
2022-09-14T11:34:38.604Z,100590.56
2022-09-14T11:37:10.459Z,100588.06
2022-09-14T11:40:10.486Z,100583.94
2022-09-14T11:42:56.390Z,100589.19
2022-09-14T11:45:29.972Z,100589.75
2022-09-14T11:48:38.275Z,100590.88
2022-09-14T11:51:11.353Z,100590.88
2022-09-14T11:53:40.241Z,100594.16
2022-09-14T11:56:23.252Z,100580.97
2022-09-14T11:58:50.381Z,100583.72
2022-09-14T12:01:39.538Z,100592.22
2022-09-14T12:04:11.888Z,100587.56
2022-09-14T12:06:38.389Z,100586.72
2022-09-14T12:09:27.892Z,100592.47
2022-09-14T12:11:58.301Z,100590.94
2022-09-14T12:14:26.810Z,100586.44
2022-09-14T12:17:38.398Z,100591.38
2022-09-14T12:20:38.325Z,100586.97
2022-09-14T12:23:17.700Z,100578.97
2022-09-14T12:26:08.684Z,100583.38
2022-09-14T12:28:35.095Z,100569.09
2022-09-14T12:31:04.518Z,100568.81
2022-09-14T12:33:31.102Z,100575.97
2022-09-14T12:36:21.516Z,100579.03
2022-09-14T12:38:50.899Z,100582.06
2022-09-14T12:41:20.372Z,100582.31
2022-09-14T12:43:50.236Z,100569.91
2022-09-14T12:46:19.692Z,100577.91
2022-09-14T12:48:48.934Z,100570.44
2022-09-14T12:51:28.363Z,100561.38
2022-09-14T12:54:02.599Z,100554.13
2022-09-14T12:56:42.270Z,100557.22
2022-09-14T12:59:32.704Z,100562.13
2022-09-14T13:02:20.467Z,100555.53
2022-09-14T13:04:47.826Z,100541.72
2022-09-14T13:07:17.803Z,100539.59
2022-09-14T13:09:49.956Z,100538.41
2022-09-14T13:12:27.975Z,100534.03
2022-09-14T13:15:01.792Z,100538.13
2022-09-14T13:17:28.280Z,100533.53
2022-09-14T13:19:57.527Z,100541.25
2022-09-14T13:22:27.250Z,100548.94
2022-09-14T13:24:53.825Z,100549.53
2022-09-14T13:27:25.165Z,100550.00
2022-09-14T13:30:04.840Z,100543.94
2022-09-14T13:32:34.769Z,100547.31
2022-09-14T13:35:04.973Z,100551.94
2022-09-14T13:37:31.721Z,100543.66
2022-09-14T13:39:58.921Z,100542.00
2022-09-14T13:42:25.820Z,100541.50
2022-09-14T13:44:52.960Z,100538.41
2022-09-14T13:47:23.391Z,100539.56
2022-09-14T13:49:51.786Z,100541.47
2022-09-14T13:52:38.913Z,100559.41
2022-09-14T13:55:14.347Z,100539.56
2022-09-14T13:58:06.495Z,100540.66
2022-09-14T14:00:34.741Z,100531.81
2022-09-14T14:03:04.804Z,100534.06
2022-09-14T14:05:40.403Z,100540.09
2022-09-14T14:08:26.147Z,100539.31
2022-09-14T14:10:54.181Z,100523.63
2022-09-14T14:13:25.817Z,100517.53
2022-09-14T14:15:54.029Z,100530.59
2022-09-14T14:18:54.085Z,100523.19
2022-09-14T14:21:24.716Z,100521.00
2022-09-14T14:24:12.245Z,100511.88
2022-09-14T14:26:40.026Z,100518.50
2022-09-14T14:29:09.943Z,100514.19
2022-09-14T14:31:36.556Z,100516.06
2022-09-14T14:34:16.436Z,100510.84
2022-09-14T14:36:42.908Z,100506.72
2022-09-14T14:39:09.361Z,100506.16
2022-09-14T14:41:36.758Z,100509.72
2022-09-14T14:44:03.453Z,100510.81
2022-09-14T14:46:30.428Z,100502.81
2022-09-14T14:48:56.998Z,100504.69
2022-09-14T14:51:23.491Z,100498.66
2022-09-14T14:53:49.950Z,100487.66
2022-09-14T14:56:16.448Z,100492.56
2022-09-14T14:58:45.157Z,100485.94
2022-09-14T15:01:12.018Z,100491.50
2022-09-14T15:03:39.186Z,100503.13
2022-09-14T15:06:15.572Z,100498.34
2022-09-14T15:08:42.678Z,100488.47
2022-09-14T15:11:17.763Z,100490.91
2022-09-14T15:13:45.352Z,100488.63
2022-09-14T15:16:12.886Z,100489.91
2022-09-14T15:18:39.471Z,100480.94
2022-09-14T15:21:06.071Z,100481.19
2022-09-14T15:23:33.262Z,100487.63
2022-09-14T15:25:59.795Z,100483.69
2022-09-14T15:28:26.288Z,100483.06
2022-09-14T15:30:52.802Z,100478.63
2022-09-14T15:33:19.540Z,100487.44
2022-09-14T15:35:45.986Z,100475.34
2022-09-14T15:38:12.453Z,100480.75
2022-09-14T15:40:39.022Z,100481.84
2022-09-14T15:43:06.203Z,100482.44
2022-09-14T15:45:32.730Z,100479.69
2022-09-14T15:47:59.228Z,100488.47
2022-09-14T15:50:25.708Z,100484.00
2022-09-14T15:52:52.184Z,100490.19
2022-09-14T15:55:18.706Z,100489.59
2022-09-14T15:57:45.517Z,100487.31
2022-09-14T16:00:14.178Z,100497.19
2022-09-14T16:02:41.977Z,100493.91
2022-09-14T16:05:08.633Z,100502.69
2022-09-14T16:07:35.094Z,100503.00
2022-09-14T16:10:01.582Z,100510.16
2022-09-14T16:12:28.033Z,100507.66
2022-09-14T16:14:54.521Z,100510.41
2022-09-14T16:17:20.979Z,100515.97
2022-09-14T16:19:49.075Z,100511.88
2022-09-14T16:22:15.544Z,100522.66
2022-09-14T16:24:42.220Z,100526.31
2022-09-14T16:27:08.680Z,100522.66
2022-09-14T16:29:35.140Z,100522.91
2022-09-14T16:32:01.749Z,100522.09
2022-09-14T16:34:29.688Z,100524.25
2022-09-14T16:36:58.468Z,100523.72
2022-09-14T16:39:27.142Z,100537.88
2022-09-14T16:41:55.590Z,100541.09
2022-09-14T16:44:24.418Z,100540.88
2022-09-14T16:46:52.353Z,100544.72
2022-09-14T16:49:22.404Z,100549.69
2022-09-14T16:51:52.919Z,100549.19
2022-09-14T16:54:21.609Z,100554.69
2022-09-14T16:56:48.684Z,100557.53
2022-09-14T16:59:16.538Z,100552.53
2022-09-14T17:01:45.714Z,100558.13
2022-09-14T17:04:15.304Z,100547.69
2022-09-14T17:06:44.347Z,100550.34
2022-09-14T17:09:13.572Z,100545.38
2022-09-14T17:11:40.904Z,100545.63
2022-09-14T17:14:09.295Z,100544.88
2022-09-14T17:16:35.857Z,100546.53
2022-09-14T17:19:04.217Z,100549.53
2022-09-14T17:21:36.513Z,100542.91
2022-09-14T17:24:04.420Z,100548.16
2022-09-14T17:26:31.611Z,100544.84
2022-09-14T17:28:59.008Z,100548.19
2022-09-14T17:31:29.655Z,100548.19
2022-09-14T17:33:57.807Z,100544.63
2022-09-14T17:36:25.137Z,100549.56
2022-09-14T17:38:51.869Z,100548.22
2022-09-14T17:41:21.598Z,100544.63
2022-09-14T17:43:52.593Z,100545.75
2022-09-14T17:46:21.430Z,100542.69
2022-09-14T17:48:50.336Z,100544.38
2022-09-14T17:51:20.468Z,100538.59
2022-09-14T17:53:52.829Z,100537.22
2022-09-14T17:56:22.048Z,100536.97
2022-09-14T17:58:56.478Z,100527.63
2022-09-14T18:01:23.390Z,100530.16
2022-09-14T18:03:52.608Z,100540.66
2022-09-14T18:06:20.169Z,100548.97
2022-09-14T18:08:47.113Z,100536.03
2022-09-14T18:11:16.521Z,100544.56
2022-09-14T18:13:48.035Z,100539.59
2022-09-14T18:16:16.634Z,100535.19
2022-09-14T18:18:43.287Z,100537.34
2022-09-14T18:21:11.058Z,100536.59
2022-09-14T18:23:37.929Z,100541.53
2022-09-14T18:26:05.775Z,100550.13
2022-09-14T18:28:33.225Z,100549.06
2022-09-14T18:31:01.796Z,100554.06
2022-09-14T18:33:29.129Z,100551.88
2022-09-14T18:35:56.185Z,100563.13
2022-09-14T18:38:23.091Z,100567.63
2022-09-14T18:40:49.657Z,100571.22
2022-09-14T18:43:16.764Z,100567.63
2022-09-14T18:45:44.074Z,100570.91
2022-09-14T18:48:10.864Z,100566.22
2022-09-14T18:50:38.590Z,100572.91
2022-09-14T18:53:05.215Z,100577.28
2022-09-14T18:55:33.077Z,100574.00
2022-09-14T18:58:00.800Z,100590.00
2022-09-14T19:00:28.000Z,100585.88
2022-09-14T19:02:56.053Z,100577.59
2022-09-14T19:05:24.199Z,100575.69
2022-09-14T19:07:50.716Z,100572.41
2022-09-14T19:10:17.714Z,100579.56
2022-09-14T19:12:44.772Z,100584.53
2022-09-14T19:15:12.156Z,100586.97
2022-09-14T19:17:38.773Z,100593.88
2022-09-14T19:20:08.078Z,100596.63
2022-09-14T19:22:34.778Z,100599.13
2022-09-14T19:25:01.448Z,100598.03
2022-09-14T19:27:28.332Z,100596.69
2022-09-14T19:29:55.000Z,100601.09
2022-09-14T19:32:21.843Z,100602.78
2022-09-14T19:34:49.040Z,100607.19
2022-09-14T19:37:15.583Z,100598.94
2022-09-14T19:39:42.257Z,100602.75
2022-09-14T19:42:08.792Z,100603.88
2022-09-14T19:44:35.267Z,100599.78
2022-09-14T19:47:01.952Z,100604.72
2022-09-14T19:49:28.495Z,100603.63
2022-09-14T19:51:56.041Z,100602.28
2022-09-14T19:54:22.724Z,100595.38
2022-09-14T19:56:49.432Z,100607.78
2022-09-14T19:59:16.605Z,100606.66
2022-09-14T20:01:43.823Z,100615.22
2022-09-14T20:04:10.929Z,100609.44
2022-09-14T20:06:42.781Z,100617.44
2022-09-14T20:09:20.852Z,100621.84
2022-09-14T20:11:49.659Z,100623.22
2022-09-14T20:14:20.195Z,100618.03
2022-09-14T20:16:49.571Z,100619.13
2022-09-14T20:19:22.496Z,100629.88
2022-09-14T20:21:50.715Z,100630.16
2022-09-14T20:24:20.265Z,100630.97
2022-09-14T20:26:50.892Z,100628.53
2022-09-14T20:29:18.995Z,100636.53
2022-09-14T20:31:46.654Z,100631.53
2022-09-14T20:34:15.573Z,100638.19
2022-09-14T20:36:42.217Z,100633.50
2022-09-14T20:39:09.184Z,100643.16
2022-09-14T20:41:36.019Z,100634.03
2022-09-14T20:44:03.458Z,100635.69
2022-09-14T20:46:34.783Z,100640.38
2022-09-14T20:49:02.984Z,100646.44
2022-09-14T20:51:29.553Z,100651.97
2022-09-14T20:53:56.323Z,100657.72
2022-09-14T20:56:25.449Z,100656.34
2022-09-14T20:58:57.876Z,100660.47
2022-09-14T21:01:27.140Z,100654.16
2022-09-14T21:03:54.331Z,100656.06
2022-09-14T21:06:25.598Z,100659.91
2022-09-14T21:08:52.564Z,100656.88
2022-09-14T21:11:21.838Z,100666.25
2022-09-14T21:13:49.817Z,100663.19
2022-09-14T21:16:18.462Z,100670.41
2022-09-14T21:18:46.603Z,100666.00
2022-09-14T21:21:16.676Z,100666.78
2022-09-14T21:23:43.330Z,100668.75
2022-09-14T21:26:11.444Z,100661.28
2022-09-14T21:28:39.525Z,100667.34
2022-09-14T21:31:13.746Z,100670.66
2022-09-14T21:33:42.076Z,100668.47
2022-09-14T21:36:17.797Z,100669.56
2022-09-14T21:38:51.638Z,100673.44
2022-09-14T21:41:19.301Z,100674.25
2022-09-14T21:43:46.075Z,100670.41
2022-09-14T21:46:12.978Z,100667.66
2022-09-14T21:48:39.444Z,100671.50
2022-09-14T21:51:19.169Z,100677.28
2022-09-14T21:53:47.567Z,100674.50
2022-09-14T21:56:15.243Z,100672.31
2022-09-14T21:58:42.281Z,100681.13
2022-09-14T22:01:09.477Z,100679.22
2022-09-14T22:03:36.732Z,100680.06
2022-09-14T22:06:06.414Z,100685.00
2022-09-14T22:08:34.547Z,100683.06
2022-09-14T22:11:06.568Z,100686.66
2022-09-14T22:13:33.607Z,100692.16
2022-09-14T22:16:07.892Z,100692.16
2022-09-14T22:18:36.768Z,100689.41
2022-09-14T22:21:04.544Z,100685.81
2022-09-14T22:23:32.204Z,100689.97
2022-09-14T22:25:58.692Z,100686.66
2022-09-14T22:28:25.617Z,100693.25
2022-09-14T22:30:54.535Z,100687.19
2022-09-14T22:33:23.167Z,100692.16
2022-09-14T22:35:54.731Z,100694.09
2022-09-14T22:38:23.264Z,100695.19
2022-09-14T22:41:03.595Z,100691.06
2022-09-14T22:43:31.297Z,100691.03
2022-09-14T22:45:58.460Z,100696.56
2022-09-14T22:48:26.106Z,100694.09
2022-09-14T22:50:54.799Z,100687.19
2022-09-14T22:53:23.169Z,100687.19
2022-09-14T22:55:50.181Z,100685.28
2022-09-14T22:58:24.225Z,100687.47
2022-09-14T23:00:51.069Z,100683.91
2022-09-14T23:03:18.343Z,100674.53
2022-09-14T23:05:51.099Z,100683.63
2022-09-14T23:08:18.422Z,100674.28
2022-09-14T23:10:45.771Z,100679.25
2022-09-14T23:13:12.304Z,100680.91
2022-09-14T23:15:39.903Z,100688.59
2022-09-14T23:18:07.167Z,100690.81
2022-09-14T23:20:42.165Z,100699.34
2022-09-14T23:23:09.982Z,100691.09
2022-09-14T23:25:38.182Z,100697.13
2022-09-14T23:28:06.123Z,100707.03
2022-09-14T23:30:33.625Z,100704.03
2022-09-14T23:33:00.658Z,100704.28
2022-09-14T23:35:28.001Z,100703.44
2022-09-14T23:37:55.185Z,100701.53
2022-09-14T23:40:21.828Z,100700.69
2022-09-14T23:42:48.413Z,100709.53
2022-09-14T23:45:15.711Z,100695.50
2022-09-14T23:47:42.204Z,100702.66
2022-09-14T23:50:09.232Z,100711.44
2022-09-14T23:52:36.821Z,100708.44
2022-09-14T23:55:03.768Z,100715.28
2022-09-14T23:57:30.456Z,100710.88
2022-09-14T23:59:57.900Z,100715.28
